createdAt,value
2022-11-05T00:02:07.731Z,60.25
2022-11-05T00:07:36.796Z,60.22
2022-11-05T00:13:06.068Z,66.18
2022-11-05T00:18:09.076Z,64.05
2022-11-05T00:23:30.924Z,62.85
2022-11-05T00:28:35.467Z,61.25
2022-11-05T00:33:39.905Z,60.46
2022-11-05T00:38:42.814Z,66.48
2022-11-05T00:44:12.340Z,63.72
2022-11-05T00:49:30.194Z,62.93
2022-11-05T00:54:33.109Z,61.19
2022-11-05T00:59:36.000Z,61.50
2022-11-05T01:04:38.910Z,61.36
2022-11-05T01:09:41.809Z,61.17
2022-11-05T01:14:44.713Z,60.79
2022-11-05T01:19:47.617Z,60.65
2022-11-05T01:24:50.731Z,60.12
2022-11-05T01:29:53.630Z,60.40
2022-11-05T01:34:56.537Z,60.71
2022-11-05T01:39:59.540Z,60.03
2022-11-05T01:45:25.486Z,65.03
2022-11-05T01:50:30.537Z,64.58
2022-11-05T01:55:38.360Z,62.62
2022-11-05T02:00:42.973Z,62.28
2022-11-05T02:05:48.573Z,62.47
2022-11-05T02:10:51.889Z,62.39
2022-11-05T02:16:26.024Z,62.93
2022-11-05T02:22:10.497Z,63.61
2022-11-05T02:27:19.238Z,63.28
2022-11-05T02:32:28.496Z,63.85
2022-11-05T02:37:41.739Z,63.77
2022-11-05T02:43:03.706Z,64.01
2022-11-05T02:48:25.231Z,64.40
2022-11-05T02:53:42.784Z,63.94
2022-11-05T02:58:45.683Z,63.79
2022-11-05T03:03:57.188Z,64.44
2022-11-05T03:09:12.277Z,64.80
2022-11-05T03:14:26.992Z,65.33
2022-11-05T03:19:58.345Z,65.39
2022-11-05T03:25:08.164Z,65.51
2022-11-05T03:30:12.919Z,64.61
2022-11-05T03:35:23.691Z,65.43
2022-11-05T03:40:27.562Z,65.69
2022-11-05T03:45:36.405Z,65.39
2022-11-05T03:51:21.699Z,65.25
2022-11-05T03:56:45.495Z,65.84
2022-11-05T04:01:49.974Z,66.84
2022-11-05T04:07:11.678Z,66.20
2022-11-05T04:12:33.327Z,66.71
2022-11-05T04:17:36.237Z,68.23
2022-11-05T04:22:57.973Z,68.22
2022-11-05T04:28:00.878Z,68.31
2022-11-05T04:33:03.782Z,69.61
2022-11-05T04:38:12.352Z,70.07
2022-11-05T04:43:18.780Z,69.26
2022-11-05T04:48:22.122Z,70.32
2022-11-05T04:53:26.245Z,71.33
2022-11-05T04:58:29.153Z,70.45
2022-11-05T05:03:32.066Z,70.51
2022-11-05T05:08:35.427Z,70.64
2022-11-05T05:13:38.274Z,72.05
2022-11-05T05:18:46.030Z,71.15
2022-11-05T05:23:49.408Z,72.25
2022-11-05T05:28:53.736Z,72.81
2022-11-05T05:33:56.861Z,72.23
2022-11-05T05:38:59.864Z,72.41
2022-11-05T05:44:05.425Z,72.86
2022-11-05T05:49:12.667Z,71.61
2022-11-05T05:54:16.255Z,69.86
2022-11-05T05:59:19.157Z,70.53
2022-11-05T06:04:22.376Z,70.09
2022-11-05T06:09:25.383Z,70.47
2022-11-05T06:14:28.383Z,71.23
2022-11-05T06:19:31.387Z,70.50
2022-11-05T06:24:34.441Z,70.08
2022-11-05T06:29:37.505Z,69.80
2022-11-05T06:34:43.067Z,69.44
2022-11-05T06:39:45.973Z,69.29
2022-11-05T06:44:48.983Z,68.04
2022-11-05T06:49:51.894Z,68.72
2022-11-05T06:54:54.889Z,68.13
2022-11-05T07:00:02.279Z,66.92
2022-11-05T07:05:11.151Z,66.99
2022-11-05T07:10:17.223Z,67.50
2022-11-05T07:15:20.744Z,66.89
2022-11-05T07:20:23.642Z,67.13
2022-11-05T07:25:26.766Z,67.02
2022-11-05T07:30:30.986Z,66.82
2022-11-05T07:35:33.992Z,66.52
2022-11-05T07:40:37.102Z,66.85
2022-11-05T07:45:40.112Z,67.18
2022-11-05T07:50:43.010Z,67.40
2022-11-05T07:55:46.222Z,67.82
2022-11-05T08:00:49.269Z,68.09
2022-11-05T08:05:52.393Z,68.16
2022-11-05T08:11:03.156Z,68.23
2022-11-05T08:16:06.694Z,68.22
2022-11-05T08:21:09.755Z,68.33
2022-11-05T08:26:12.658Z,67.41
2022-11-05T08:31:18.069Z,66.91
2022-11-05T08:36:20.934Z,66.73
2022-11-05T08:41:24.442Z,66.69
2022-11-05T08:46:27.657Z,67.03
2022-11-05T08:51:31.249Z,66.53
2022-11-05T08:56:34.282Z,67.07
2022-11-05T09:01:37.552Z,67.01
2022-11-05T09:06:40.611Z,67.32
2022-11-05T09:12:10.562Z,66.67
2022-11-05T09:17:17.612Z,65.08
2022-11-05T09:22:20.555Z,64.83
2022-11-05T09:27:23.450Z,64.36
2022-11-05T09:32:26.365Z,62.98
2022-11-05T09:37:29.975Z,63.09
2022-11-05T09:42:41.202Z,63.34
2022-11-05T09:47:52.579Z,63.34
2022-11-05T09:52:55.481Z,64.22
2022-11-05T09:58:06.780Z,64.84
2022-11-05T10:03:15.778Z,64.78
2022-11-05T10:08:18.740Z,63.90
2022-11-05T10:13:29.929Z,63.62
2022-11-05T10:18:47.585Z,63.45
2022-11-05T10:23:50.484Z,63.46
2022-11-05T10:28:54.251Z,63.20
2022-11-05T10:34:02.447Z,62.60
2022-11-05T10:39:15.087Z,62.10
2022-11-05T10:44:19.333Z,62.20
2022-11-05T10:49:46.580Z,62.24
2022-11-05T10:54:51.267Z,61.77
2022-11-05T10:59:54.235Z,61.27
2022-11-05T11:04:58.566Z,60.85
2022-11-05T11:10:01.575Z,60.47
2022-11-05T11:15:14.517Z,60.12
2022-11-05T11:20:30.733Z,60.09
2022-11-05T11:25:45.294Z,58.72
2022-11-05T11:31:03.571Z,59.33
2022-11-05T11:36:07.389Z,66.75
2022-11-05T11:41:26.173Z,64.67
2022-11-05T11:46:33.378Z,61.40
2022-11-05T11:51:49.446Z,58.63
2022-11-05T11:56:53.320Z,61.59
2022-11-05T12:02:14.419Z,64.90
2022-11-05T12:07:53.400Z,61.37
2022-11-05T12:13:27.432Z,58.67
2022-11-05T12:19:12.324Z,60.28
2022-11-05T12:24:40.517Z,66.85
2022-11-05T12:30:17.728Z,62.80
2022-11-05T12:36:08.552Z,60.07
2022-11-05T12:41:33.274Z,64.33
2022-11-05T12:46:56.660Z,62.59
2022-11-05T12:52:05.508Z,59.73
2022-11-05T12:57:12.870Z,59.48
2022-11-05T13:02:26.164Z,65.76
2022-11-05T13:07:36.127Z,63.79
2022-11-05T13:12:42.557Z,61.08
2022-11-05T13:18:30.676Z,59.95
2022-11-05T13:23:42.592Z,59.60
2022-11-05T13:28:55.778Z,64.58
2022-11-05T13:34:05.255Z,61.03
2022-11-05T13:39:35.188Z,58.51
2022-11-05T13:44:50.325Z,60.00
2022-11-05T13:49:59.170Z,66.19
2022-11-05T13:55:08.218Z,63.41
2022-11-05T14:00:19.628Z,61.65
2022-11-05T14:05:28.562Z,60.01
2022-11-05T14:10:37.232Z,58.29
2022-11-05T14:15:40.316Z,64.33
2022-11-05T14:20:56.424Z,63.43
2022-11-05T14:26:34.962Z,61.42
2022-11-05T14:32:10.506Z,60.14
2022-11-05T14:37:13.642Z,58.24
2022-11-05T14:42:30.880Z,60.54
2022-11-05T14:47:39.785Z,68.18
2022-11-05T14:52:54.128Z,64.84
2022-11-05T14:57:57.104Z,61.80
2022-11-05T15:03:24.418Z,60.59
2022-11-05T15:08:51.863Z,58.88
2022-11-05T15:14:08.605Z,59.90
2022-11-05T15:19:21.735Z,67.85
2022-11-05T15:24:28.283Z,65.21
2022-11-05T15:29:33.542Z,62.16
2022-11-05T15:34:36.537Z,60.94
2022-11-05T15:39:41.132Z,60.31
2022-11-05T15:44:46.594Z,58.52
2022-11-05T15:49:57.356Z,64.19
2022-11-05T15:55:13.010Z,65.71
2022-11-05T16:00:22.661Z,62.50
2022-11-05T16:05:33.958Z,60.99
2022-11-05T16:10:38.944Z,59.76
2022-11-05T16:15:53.901Z,58.34
2022-11-05T16:21:02.521Z,60.98
2022-11-05T16:26:05.636Z,68.95
2022-11-05T16:31:08.538Z,66.97
2022-11-05T16:36:12.032Z,64.13
2022-11-05T16:41:16.891Z,62.08
2022-11-05T16:46:19.917Z,60.93
2022-11-05T16:51:27.260Z,58.84
2022-11-05T16:56:30.981Z,60.99
2022-11-05T17:01:39.828Z,68.10
2022-11-05T17:06:44.026Z,66.28
2022-11-05T17:11:46.960Z,62.23
2022-11-05T17:16:50.040Z,58.62
2022-11-05T17:21:55.114Z,59.70
2022-11-05T17:26:58.097Z,67.57
2022-11-05T17:32:01.206Z,62.97
2022-11-05T17:37:04.216Z,59.02
2022-11-05T17:42:07.117Z,60.23
2022-11-05T17:47:10.228Z,66.46
2022-11-05T17:52:13.336Z,64.61
2022-11-05T17:57:16.446Z,61.90
2022-11-05T18:02:19.596Z,60.41
2022-11-05T18:07:22.765Z,58.69
2022-11-05T18:12:25.668Z,60.79
2022-11-05T18:17:30.000Z,66.29
2022-11-05T18:22:32.909Z,62.82
2022-11-05T18:27:36.047Z,60.33
2022-11-05T18:32:39.126Z,58.52
2022-11-05T18:37:42.501Z,62.33
2022-11-05T18:42:45.871Z,67.77
2022-11-05T18:47:48.864Z,63.98
2022-11-05T18:52:51.720Z,62.18
2022-11-05T18:57:54.672Z,60.94
2022-11-05T19:02:58.235Z,59.92
2022-11-05T19:08:01.298Z,58.30
2022-11-05T19:13:04.201Z,61.74
2022-11-05T19:18:07.834Z,69.02
2022-11-05T19:23:10.991Z,64.95
2022-11-05T19:28:14.235Z,62.29
2022-11-05T19:33:17.578Z,60.55
2022-11-05T19:38:20.566Z,58.81
2022-11-05T19:43:23.674Z,65.17
2022-11-05T19:48:27.768Z,65.85
2022-11-05T19:53:30.714Z,62.12
2022-11-05T19:58:35.139Z,60.39
2022-11-05T20:03:38.719Z,58.71
2022-11-05T20:08:59.830Z,62.12
2022-11-05T20:14:06.367Z,66.64
2022-11-05T20:19:14.415Z,62.15
2022-11-05T20:24:24.283Z,59.99
2022-11-05T20:29:35.039Z,58.61
2022-11-05T20:34:38.898Z,65.76
2022-11-05T20:39:41.779Z,63.74
2022-11-05T20:44:44.704Z,61.22
2022-11-05T20:49:47.609Z,59.81
2022-11-05T20:54:50.514Z,58.38
2022-11-05T20:59:53.517Z,64.47
2022-11-05T21:04:56.422Z,67.10
2022-11-05T21:09:59.327Z,63.34
2022-11-05T21:15:02.539Z,61.05
2022-11-05T21:20:06.293Z,59.53
2022-11-05T21:25:10.383Z,59.03
2022-11-05T21:30:13.660Z,66.08
2022-11-05T21:35:19.281Z,63.58
2022-11-05T21:40:22.488Z,60.88
2022-11-05T21:45:25.497Z,59.07
2022-11-05T21:50:47.351Z,59.92
2022-11-05T21:56:08.986Z,66.64
2022-11-05T22:01:13.921Z,63.23
2022-11-05T22:06:17.044Z,60.92
2022-11-05T22:11:20.153Z,59.94
2022-11-05T22:16:23.057Z,58.61
2022-11-05T22:21:26.061Z,64.91
2022-11-05T22:26:28.968Z,66.18
2022-11-05T22:31:36.009Z,62.59
2022-11-05T22:36:39.688Z,60.79
2022-11-05T22:41:43.129Z,59.40
2022-11-05T22:46:46.214Z,59.65
2022-11-05T22:51:49.423Z,66.95
2022-11-05T22:56:53.928Z,64.31
2022-11-05T23:01:56.986Z,62.39
2022-11-05T23:07:23.175Z,61.28
2022-11-05T23:12:34.859Z,60.75
2022-11-05T23:17:56.582Z,60.03
2022-11-05T23:23:18.530Z,59.64
2022-11-05T23:28:21.855Z,58.88
2022-11-05T23:33:25.486Z,64.09
2022-11-05T23:38:34.922Z,67.96
2022-11-05T23:43:56.360Z,64.93
2022-11-05T23:48:59.877Z,62.97
2022-11-05T23:54:02.785Z,61.50
2022-11-05T23:59:06.098Z,60.62
